ADDS METAR Data

Data at: 0505 UTC 20 Apr 2018

METAR for:KBOS (Boston/Logan Intl, MA, US)
Text:KBOS 200454Z 28013KT 10SM OVC070 04/M01 A2984 RMK AO2 SLP104 T00441011 400670022
Temperature: 4.4°C ( 40°F)
Dewpoint: -1.1°C ( 30°F) [RH = 67%]
Pressure (altimeter):29.84 inches Hg (1010.6 mb) [Sea level pressure: 1010.4 mb]
Winds:from the W (280 degrees) at 15 MPH (13 knots; 6.7 m/s)
Visibility:10 or more sm (16+ km)
Ceiling:7000 feet AGL
Clouds: overcast cloud deck at 7000 feet AGL